Acadia Natl Park, Maine
Current Conditions -  °F | °C
As of 12:55 PM on Thursday 30 Oct 2014 (Local Time) from KBHB Reporting Station
Overcast Overcast  
Wind Chill: 55°   Ceiling: 9000
Heat Index: 55°   Visibility: 10mi
Dew Point: 43°   Wind: 8mph
Humidity: 63%   Direction: 270°W
Pressure: 29.86"   Gusts: NA
Location:  44.3°N, 68.25°W
Report Text: KBHB 301655Z AUTO 27007KT 10SM FEW032 OVC090 13/06 A2986 RMK AO1
Loading
Personal Weather Stations






























Interactive Weather Map
Tropical Storm Tracking
New forecast layout! Learn more

10-Day Weather Forecast

Advertisements
Track Severe Weather on mobile